Beasley, Texas
Current Conditions -  °F | °C
As of 10:53 AM on Thursday 30 Oct 2014 (Local Time) from KSGR Reporting Station
Clear Clear  
Wind Chill: 72°   Ceiling: Unl
Heat Index: 72°   Visibility: 10mi
Dew Point: 54°   Wind: 6mph
Humidity: 53%   Direction: 60°ENE
Pressure: 30.14"   Gusts: NA
Location:  29.5°N, 95.92°W
Report Text: KSGR 301553Z 06005KT 10SM CLR 22/12 A3014 RMK AO2 SLP208 T02220122
Loading
Personal Weather Stations






























Interactive Weather Map
Tropical Storm Tracking
New forecast layout! Learn more

10-Day Weather Forecast

Advertisements
Track Severe Weather on mobile